Time,TemperatureF,DewpointF,PressureIn,WindDirection,WindDirectionDegrees,WindSpeedMPH,WindSpeedGustMPH,Humidity,HourlyPrecipIn,Conditions,Clouds,dailyrainin,SolarRadiationWatts/m^2,SoftwareType,DateUTC
2013-04-25 00:03:00,71.0,65.0,-100.00,East,86,5.0,8.0,82,0.00,,,0.00,0.000000,,2013-04-25 04:03:00,
2013-04-25 00:13:00,71.0,65.0,-100.00,East,86,5.0,8.0,82,0.00,,,0.00,0.000000,,2013-04-25 04:13:00,
2013-04-25 00:23:00,71.0,65.0,-100.00,East,86,5.0,8.0,82,0.00,,,0.00,0.000000,,2013-04-25 04:23:00,
2013-04-25 00:32:00,70.0,65.0,-100.00,East,83,5.0,7.0,84,0.00,,,0.00,0.000000,,2013-04-25 04:32:00,
2013-04-25 00:52:00,70.0,65.0,-100.00,East,83,5.0,7.0,84,0.00,,,0.00,0.000000,,2013-04-25 04:52:00,
2013-04-25 01:03:00,70.0,65.0,-100.00,East,83,5.0,7.0,84,0.00,,,0.00,0.000000,,2013-04-25 05:03:00,
2013-04-25 01:12:00,70.0,65.0,-100.00,East,83,5.0,7.0,84,0.00,,,0.00,0.000000,,2013-04-25 05:12:00,
2013-04-25 01:22:00,70.0,65.0,-100.00,East,83,5.0,7.0,84,0.00,,,0.00,0.000000,,2013-04-25 05:22:00,
2013-04-25 01:32:00,69.0,65.0,-100.00,East,88,5.0,6.0,87,0.00,,,0.00,0.000000,,2013-04-25 05:32:00,
2013-04-25 01:52:00,69.0,65.0,-100.00,East,88,5.0,6.0,87,0.00,,,0.00,0.000000,,2013-04-25 05:52:00,
2013-04-25 02:02:00,69.0,65.0,-100.00,East,88,5.0,6.0,87,0.00,,,0.00,0.000000,,2013-04-25 06:02:00,
2013-04-25 02:12:00,69.0,65.0,-100.00,East,88,5.0,6.0,87,0.00,,,0.00,0.000000,,2013-04-25 06:12:00,
2013-04-25 02:22:00,69.0,65.0,-100.00,East,88,5.0,6.0,87,0.00,,,0.00,0.000000,,2013-04-25 06:22:00,
2013-04-25 02:32:00,69.0,65.0,-100.00,East,88,5.0,7.0,86,0.00,,,0.00,0.000000,,2013-04-25 06:32:00,
2013-04-25 02:52:00,69.0,65.0,-100.00,East,88,5.0,7.0,86,0.00,,,0.00,0.000000,,2013-04-25 06:52:00,
2013-04-25 03:02:00,69.0,65.0,-100.00,East,88,5.0,7.0,86,0.00,,,0.00,0.000000,,2013-04-25 07:02:00,
2013-04-25 03:12:00,69.0,65.0,-100.00,East,88,5.0,7.0,86,0.00,,,0.00,0.000000,,2013-04-25 07:12:00,
2013-04-25 03:22:00,69.0,65.0,-100.00,East,88,5.0,7.0,86,0.00,,,0.00,0.000000,,2013-04-25 07:22:00,
2013-04-25 03:32:00,68.0,65.0,-100.00,East,81,5.0,6.0,90,0.00,,,0.00,0.000000,,2013-04-25 07:32:00,
2013-04-25 03:53:00,68.0,65.0,-100.00,East,81,5.0,6.0,90,0.00,,,0.00,0.000000,,2013-04-25 07:53:00,
2013-04-25 04:02:00,68.0,65.0,-100.00,East,81,5.0,6.0,90,0.00,,,0.00,0.000000,,2013-04-25 08:02:00,
2013-04-25 04:11:00,68.0,65.0,-100.00,East,81,5.0,6.0,90,0.00,,,0.00,0.000000,,2013-04-25 08:11:00,
2013-04-25 04:22:00,68.0,65.0,-100.00,East,81,5.0,6.0,90,0.00,,,0.00,0.000000,,2013-04-25 08:22:00,
2013-04-25 04:32:00,67.0,65.0,-100.00,East,82,4.0,5.0,92,0.00,,,0.00,0.000000,,2013-04-25 08:32:00,
2013-04-25 04:52:00,67.0,65.0,-100.00,East,82,4.0,5.0,92,0.00,,,0.00,0.000000,,2013-04-25 08:52:00,
2013-04-25 05:01:00,67.0,65.0,-100.00,East,82,4.0,5.0,92,0.00,,,0.00,0.000000,,2013-04-25 09:01:00,
2013-04-25 05:11:00,67.0,65.0,-100.00,East,82,4.0,5.0,92,0.00,,,0.00,0.000000,,2013-04-25 09:11:00,
2013-04-25 05:21:00,67.0,65.0,-100.00,East,82,4.0,5.0,92,0.00,,,0.00,0.000000,,2013-04-25 09:21:00,
2013-04-25 05:32:00,66.0,65.0,-100.00,NE,48,1.0,5.0,95,0.00,,,0.00,0.000000,,2013-04-25 09:32:00,
2013-04-25 05:53:00,66.0,65.0,-100.00,NE,48,1.0,5.0,95,0.00,,,0.00,0.000000,,2013-04-25 09:53:00,
2013-04-25 06:03:00,66.0,65.0,-100.00,NE,48,1.0,5.0,95,0.00,,,0.00,0.000000,,2013-04-25 10:03:00,
2013-04-25 06:12:00,66.0,65.0,-100.00,NE,48,1.0,5.0,95,0.00,,,0.00,0.000000,,2013-04-25 10:12:00,
2013-04-25 06:22:00,66.0,65.0,-100.00,NE,48,1.0,5.0,95,0.00,,,0.00,0.000000,,2013-04-25 10:22:00,
2013-04-25 06:32:00,66.0,65.0,-100.00,North,6,3.0,4.0,97,0.00,,,0.00,0.000000,,2013-04-25 10:32:00,
2013-04-25 06:53:00,66.0,65.0,-100.00,North,6,3.0,4.0,97,0.00,,,0.00,0.000000,,2013-04-25 10:53:00,
2013-04-25 07:02:00,66.0,65.0,-100.00,North,6,3.0,4.0,97,0.00,,,0.00,0.000000,,2013-04-25 11:02:00,
2013-04-25 07:12:00,66.0,65.0,-100.00,North,6,3.0,4.0,97,0.00,,,0.00,0.000000,,2013-04-25 11:12:00,
2013-04-25 07:22:00,66.0,65.0,-100.00,North,6,3.0,4.0,97,0.00,,,0.00,0.000000,,2013-04-25 11:22:00,
2013-04-25 07:32:00,67.0,66.0,-100.00,North,4,3.0,5.0,97,0.00,,,0.00,31.000000,,2013-04-25 11:32:00,
2013-04-25 07:52:00,67.0,66.0,-100.00,North,4,3.0,5.0,97,0.00,,,0.00,31.000000,,2013-04-25 11:52:00,
2013-04-25 08:01:00,67.0,66.0,-100.00,North,4,3.0,5.0,97,0.00,,,0.00,31.000000,,2013-04-25 12:01:00,
2013-04-25 08:12:00,67.0,66.0,-100.00,North,4,3.0,5.0,97,0.00,,,0.00,31.000000,,2013-04-25 12:12:00,
2013-04-25 08:21:00,67.0,66.0,-100.00,North,4,3.0,5.0,97,0.00,,,0.00,31.000000,,2013-04-25 12:21:00,
2013-04-25 08:32:00,73.0,67.0,-100.00,NNE,33,4.0,6.0,82,0.00,,,0.00,201.000000,,2013-04-25 12:32:00,
2013-04-25 08:52:00,73.0,67.0,-100.00,NNE,33,4.0,6.0,82,0.00,,,0.00,201.000000,,2013-04-25 12:52:00,
2013-04-25 09:02:00,73.0,67.0,-100.00,NNE,33,4.0,6.0,82,0.00,,,0.00,201.000000,,2013-04-25 13:02:00,
2013-04-25 09:11:00,73.0,67.0,-100.00,NNE,33,4.0,6.0,82,0.00,,,0.00,201.000000,,2013-04-25 13:11:00,
2013-04-25 09:21:00,73.0,67.0,-100.00,NNE,33,4.0,6.0,82,0.00,,,0.00,201.000000,,2013-04-25 13:21:00,
2013-04-25 09:32:00,78.0,63.0,-100.00,East,82,6.0,11.0,60,0.00,,,-99.99,410.000000,,2013-04-25 13:32:00,
2013-04-25 09:53:00,78.0,63.0,-100.00,East,82,6.0,11.0,60,0.00,,,-99.99,410.000000,,2013-04-25 13:53:00,
2013-04-25 10:02:00,78.0,63.0,-100.00,East,82,6.0,11.0,60,0.00,,,-99.99,410.000000,,2013-04-25 14:02:00,
2013-04-25 10:11:00,78.0,63.0,-100.00,East,82,6.0,11.0,60,0.00,,,-99.99,410.000000,,2013-04-25 14:11:00,
2013-04-25 10:21:00,78.0,63.0,-100.00,East,82,6.0,11.0,60,0.00,,,-99.99,410.000000,,2013-04-25 14:21:00,
2013-04-25 10:32:00,80.0,63.0,-100.00,East,94,6.0,12.0,56,0.00,,,0.00,608.000000,,2013-04-25 14:32:00,
2013-04-25 10:52:00,80.0,63.0,-100.00,East,94,6.0,12.0,56,0.00,,,0.00,608.000000,,2013-04-25 14:52:00,
2013-04-25 11:02:00,80.0,63.0,-100.00,East,94,6.0,12.0,56,0.00,,,0.00,608.000000,,2013-04-25 15:02:00,
2013-04-25 11:11:00,80.0,63.0,-100.00,East,94,6.0,12.0,56,0.00,,,0.00,608.000000,,2013-04-25 15:11:00,
2013-04-25 11:21:00,80.0,63.0,-100.00,East,94,6.0,12.0,56,0.00,,,0.00,608.000000,,2013-04-25 15:21:00,
2013-04-25 11:32:00,81.0,62.0,-100.00,East,94,9.0,15.0,53,0.00,,,0.00,756.000000,,2013-04-25 15:32:00,
2013-04-25 11:53:00,81.0,62.0,-100.00,East,94,9.0,15.0,53,0.00,,,0.00,756.000000,,2013-04-25 15:53:00,
2013-04-25 12:03:00,81.0,62.0,-100.00,East,94,9.0,15.0,53,0.00,,,0.00,756.000000,,2013-04-25 16:03:00,
2013-04-25 12:13:00,81.0,62.0,-100.00,East,94,9.0,15.0,53,0.00,,,0.00,756.000000,,2013-04-25 16:13:00,
2013-04-25 12:24:00,81.0,62.0,-100.00,East,94,9.0,15.0,53,0.00,,,0.00,756.000000,,2013-04-25 16:24:00,
2013-04-25 12:32:00,82.0,61.0,-100.00,NNE,28,6.0,14.0,49,0.00,,,0.00,862.000000,,2013-04-25 16:32:00,
2013-04-25 12:53:00,82.0,61.0,-100.00,NNE,28,6.0,14.0,49,0.00,,,0.00,862.000000,,2013-04-25 16:53:00,
2013-04-25 13:02:00,82.0,61.0,-100.00,NNE,28,6.0,14.0,49,0.00,,,0.00,862.000000,,2013-04-25 17:02:00,
2013-04-25 13:12:00,82.0,61.0,-100.00,NNE,28,6.0,14.0,49,0.00,,,0.00,862.000000,,2013-04-25 17:12:00,
2013-04-25 13:22:00,82.0,61.0,-100.00,NNE,28,6.0,14.0,49,0.00,,,0.00,862.000000,,2013-04-25 17:22:00,
2013-04-25 13:32:00,83.0,62.0,-100.00,NNE,32,9.0,16.0,49,0.00,,,0.00,900.000000,,2013-04-25 17:32:00,
2013-04-25 13:53:00,83.0,62.0,-100.00,NNE,32,9.0,16.0,49,0.00,,,0.00,900.000000,,2013-04-25 17:53:00,
2013-04-25 14:02:00,83.0,62.0,-100.00,NNE,32,9.0,16.0,49,0.00,,,0.00,900.000000,,2013-04-25 18:02:00,
2013-04-25 14:11:00,83.0,62.0,-100.00,NNE,32,9.0,16.0,49,0.00,,,0.00,900.000000,,2013-04-25 18:11:00,
2013-04-25 14:22:00,83.0,62.0,-100.00,NNE,32,9.0,16.0,49,0.00,,,0.00,900.000000,,2013-04-25 18:22:00,
2013-04-25 14:32:00,84.0,62.0,-100.00,NE,44,9.0,15.0,48,0.00,,,0.00,871.000000,,2013-04-25 18:32:00,
2013-04-25 14:53:00,84.0,62.0,-100.00,NE,44,9.0,15.0,48,0.00,,,0.00,871.000000,,2013-04-25 18:53:00,
2013-04-25 15:02:00,84.0,62.0,-100.00,NE,44,9.0,15.0,48,0.00,,,0.00,871.000000,,2013-04-25 19:02:00,
2013-04-25 15:12:00,84.0,62.0,-100.00,NE,44,9.0,15.0,48,0.00,,,0.00,871.000000,,2013-04-25 19:12:00,
2013-04-25 15:21:00,84.0,62.0,-100.00,NE,44,9.0,15.0,48,0.00,,,0.00,871.000000,,2013-04-25 19:21:00,
2013-04-25 15:32:00,84.0,62.0,-100.00,NE,54,10.0,19.0,47,0.00,,,0.00,816.000000,,2013-04-25 19:32:00,
2013-04-25 15:52:00,84.0,62.0,-100.00,NE,54,10.0,19.0,47,0.00,,,0.00,816.000000,,2013-04-25 19:52:00,
2013-04-25 16:02:00,84.0,62.0,-100.00,NE,54,10.0,19.0,47,0.00,,,0.00,816.000000,,2013-04-25 20:02:00,
2013-04-25 16:11:00,84.0,62.0,-100.00,NE,54,10.0,19.0,47,0.00,,,0.00,816.000000,,2013-04-25 20:11:00,
2013-04-25 16:22:00,84.0,62.0,-100.00,NE,54,10.0,19.0,47,0.00,,,0.00,816.000000,,2013-04-25 20:22:00,
2013-04-25 16:32:00,83.0,61.0,-100.00,ENE,72,10.0,18.0,48,0.00,,,0.00,686.000000,,2013-04-25 20:32:00,
2013-04-25 16:52:00,83.0,61.0,-100.00,ENE,72,10.0,18.0,48,0.00,,,0.00,686.000000,,2013-04-25 20:52:00,
2013-04-25 17:01:00,83.0,61.0,-100.00,ENE,72,10.0,18.0,48,0.00,,,0.00,686.000000,,2013-04-25 21:01:00,
2013-04-25 17:11:00,83.0,61.0,-100.00,ENE,72,10.0,18.0,48,0.00,,,0.00,686.000000,,2013-04-25 21:11:00,
2013-04-25 17:22:00,83.0,61.0,-100.00,ENE,72,10.0,18.0,48,0.00,,,0.00,686.000000,,2013-04-25 21:22:00,
2013-04-25 17:32:00,82.0,59.0,-100.00,ENE,63,11.0,19.0,46,0.00,,,0.00,500.000000,,2013-04-25 21:32:00,
2013-04-25 17:53:00,82.0,59.0,-100.00,ENE,63,11.0,19.0,46,0.00,,,0.00,500.000000,,2013-04-25 21:53:00,
2013-04-25 18:03:00,82.0,59.0,-100.00,ENE,63,11.0,19.0,46,0.00,,,0.00,500.000000,,2013-04-25 22:03:00,
2013-04-25 18:12:00,82.0,59.0,-100.00,ENE,63,11.0,19.0,46,0.00,,,0.00,500.000000,,2013-04-25 22:12:00,
2013-04-25 18:22:00,82.0,59.0,-100.00,ENE,63,11.0,19.0,46,0.00,,,0.00,500.000000,,2013-04-25 22:22:00,
2013-04-25 18:32:00,80.0,59.0,-100.00,ENE,65,11.0,18.0,49,0.00,,,0.00,307.000000,,2013-04-25 22:32:00,
2013-04-25 18:53:00,80.0,59.0,-100.00,ENE,65,11.0,18.0,49,0.00,,,0.00,307.000000,,2013-04-25 22:53:00,
2013-04-25 19:02:00,80.0,59.0,-100.00,ENE,65,11.0,18.0,49,0.00,,,0.00,307.000000,,2013-04-25 23:02:00,
2013-04-25 19:12:00,80.0,59.0,-100.00,ENE,65,11.0,18.0,49,0.00,,,0.00,307.000000,,2013-04-25 23:12:00,
2013-04-25 19:22:00,80.0,59.0,-100.00,ENE,65,11.0,18.0,49,0.00,,,0.00,307.000000,,2013-04-25 23:22:00,
2013-04-25 19:32:00,76.0,60.0,-100.00,ENE,70,9.0,16.0,58,0.00,,,0.00,110.000000,,2013-04-25 23:32:00,
2013-04-25 19:52:00,76.0,60.0,-100.00,ENE,70,9.0,16.0,58,0.00,,,0.00,110.000000,,2013-04-25 23:52:00,
2013-04-25 20:01:00,76.0,60.0,-100.00,ENE,70,9.0,16.0,58,0.00,,,0.00,110.000000,,2013-04-26 00:01:00,
2013-04-25 20:11:00,76.0,60.0,-100.00,ENE,70,9.0,16.0,58,0.00,,,0.00,110.000000,,2013-04-26 00:11:00,
2013-04-25 20:21:00,76.0,60.0,-100.00,ENE,70,9.0,16.0,58,0.00,,,0.00,110.000000,,2013-04-26 00:21:00,
2013-04-25 20:32:00,72.0,61.0,-100.00,ENE,74,6.0,11.0,69,0.00,,,0.00,4.000000,,2013-04-26 00:32:00,
2013-04-25 20:52:00,72.0,61.0,-100.00,ENE,74,6.0,11.0,69,0.00,,,0.00,4.000000,,2013-04-26 00:52:00,
2013-04-25 21:01:00,72.0,61.0,-100.00,ENE,74,6.0,11.0,69,0.00,,,0.00,4.000000,,2013-04-26 01:01:00,
2013-04-25 21:11:00,72.0,61.0,-100.00,ENE,74,6.0,11.0,69,0.00,,,0.00,4.000000,,2013-04-26 01:11:00,
2013-04-25 21:21:00,72.0,61.0,-100.00,ENE,74,6.0,11.0,69,0.00,,,0.00,4.000000,,2013-04-26 01:21:00,
2013-04-25 21:32:00,71.0,65.0,-100.00,ENE,68,4.0,7.0,82,0.00,,,0.00,0.000000,,2013-04-26 01:32:00,
2013-04-25 21:52:00,71.0,65.0,-100.00,ENE,68,4.0,7.0,82,0.00,,,0.00,0.000000,,2013-04-26 01:52:00,
2013-04-25 22:02:00,71.0,65.0,-100.00,ENE,68,4.0,7.0,82,0.00,,,0.00,0.000000,,2013-04-26 02:02:00,
2013-04-25 22:12:00,71.0,65.0,-100.00,ENE,68,4.0,7.0,82,0.00,,,0.00,0.000000,,2013-04-26 02:12:00,
2013-04-25 22:21:00,71.0,65.0,-100.00,ENE,68,4.0,7.0,82,0.00,,,0.00,0.000000,,2013-04-26 02:21:00,
2013-04-25 22:32:00,70.0,66.0,-100.00,NE,44,4.0,5.0,88,0.00,,,0.00,0.000000,,2013-04-26 02:32:00,
2013-04-25 22:52:00,70.0,66.0,-100.00,NE,44,4.0,5.0,88,0.00,,,0.00,0.000000,,2013-04-26 02:52:00,
2013-04-25 23:01:00,70.0,66.0,-100.00,NE,44,4.0,5.0,88,0.00,,,0.00,0.000000,,2013-04-26 03:01:00,
2013-04-25 23:11:00,70.0,66.0,-100.00,NE,44,4.0,5.0,88,0.00,,,0.00,0.000000,,2013-04-26 03:11:00,
2013-04-25 23:22:00,70.0,66.0,-100.00,NE,44,4.0,5.0,88,0.00,,,0.00,0.000000,,2013-04-26 03:22:00,
2013-04-25 23:32:00,69.0,66.0,-100.00,ENE,66,4.0,5.0,91,0.00,,,0.00,0.000000,,2013-04-26 03:32:00,
2013-04-25 23:53:00,69.0,66.0,-100.00,ENE,66,4.0,5.0,91,0.00,,,0.00,0.000000,,2013-04-26 03:53:00,